KXLL

Details ICAO KXLL
Name Allentown Queen City Muni
Region United States
Timezone America/New_York (UTC-5.0)
Plans Departing 4
Arriving 8
Stats Elevation 398 ft / 121 m (AMSL)
Location 40.570397° -75.488306°
Runways 2
Magnetic Variation 12.084° W
Sunrise 2017-12-11 12:17:02 UTC / 2017-12-11 07:17:02 Local
Sunset 2017-12-11 21:36:29 UTC / 2017-12-11 16:36:29 Local
Advertisement - Login to hide

Runways

ID Width Length Bearing (true) Bearing (mag) Surface Threshold Offset Overrun Length
07 75 ft / 23 m 3,940 ft / 1,201 m 58.18° 70.26° Asphalt 0 ft / 0 m 0 ft / 0 m
15 75 ft / 23 m 3,150 ft / 960 m 135.01° 147.09° Asphalt 0 ft / 0 m 0 ft / 0 m
25 75 ft / 23 m 3,940 ft / 1,201 m 238.19° 250.27° Asphalt 0 ft / 0 m 0 ft / 0 m
33 75 ft / 23 m 3,150 ft / 960 m 315.02° 327.10° Asphalt 0 ft / 0 m 0 ft / 0 m

Map

Weather


0- 5 10 15 20 25 30 35+ Temperature / ° C

Clouds and Precipitation
Forecast for 2017-12-11 18:00 UTC. Updated 29 minutes ago

Ground ~20,000 ft ~40,000 ft Winds

METAR

KXLL 111335Z AUTO 21004KT 10SM SCT060 00/M05 A3005 RMK AO2

TAF

Not found

Frequencies

Unicom 122.70 MHz CTAF/UNICOM
Approach 118.20 MHz APP/DEP
Approach 124.45 MHz APP/DEP
Clearance 118.90 MHz CLNC DEL
Approach 119.65 MHz APP/DEP
Warning: Do not use this data for real-world aviation or navigation. No guarantee of current accuracy is given.